createdAt,value
2022-10-19T00:01:15.931Z,4.00
2022-10-19T00:03:46.191Z,3.70
2022-10-19T00:06:25.044Z,4.07
2022-10-19T00:09:07.595Z,3.58
2022-10-19T00:11:39.616Z,3.90
2022-10-19T00:14:11.159Z,4.15
2022-10-19T00:16:38.935Z,4.07
2022-10-19T00:19:14.939Z,4.20
2022-10-19T00:21:42.660Z,4.82
2022-10-19T00:24:10.707Z,3.92
2022-10-19T00:26:38.205Z,4.20
2022-10-19T00:29:06.773Z,4.27
2022-10-19T00:34:01.895Z,4.85
2022-10-19T00:36:36.714Z,4.65
2022-10-19T00:39:07.115Z,4.70
2022-10-19T00:41:37.048Z,4.78
2022-10-19T00:44:26.912Z,4.00
2022-10-19T00:46:59.764Z,4.43
2022-10-19T00:49:33.704Z,3.72
2022-10-19T00:52:12.609Z,4.43
2022-10-19T00:54:43.151Z,3.95
2022-10-19T00:57:11.906Z,3.50
2022-10-19T00:59:42.549Z,4.15
2022-10-19T01:02:10.328Z,4.22
2022-10-19T01:04:44.587Z,4.80
2022-10-19T01:07:12.754Z,5.03
2022-10-19T01:09:40.160Z,4.45
2022-10-19T01:12:17.867Z,4.43
2022-10-19T01:15:15.018Z,3.65
2022-10-19T01:18:02.483Z,3.90
2022-10-19T01:20:41.887Z,4.63
2022-10-19T01:23:24.130Z,4.00
2022-10-19T01:26:08.932Z,3.70
2022-10-19T01:29:04.058Z,3.97
2022-10-19T01:32:02.564Z,3.55
2022-10-19T01:34:57.659Z,3.85
2022-10-19T01:37:40.783Z,3.65
2022-10-19T01:40:25.586Z,3.60
2022-10-19T01:43:42.436Z,3.58
2022-10-19T01:49:54.212Z,4.57
2022-10-19T01:52:25.619Z,3.30
2022-10-19T01:55:00.361Z,3.70
2022-10-19T01:57:35.018Z,3.45
2022-10-19T02:00:08.095Z,3.58
2022-10-19T02:02:47.387Z,3.50
2022-10-19T02:05:18.483Z,3.53
2022-10-19T02:07:53.138Z,3.00
2022-10-19T02:10:21.770Z,3.33
2022-10-19T02:12:50.498Z,3.38
2022-10-19T02:15:22.544Z,3.03
2022-10-19T02:17:56.900Z,3.97
2022-10-19T02:20:24.755Z,4.00
2022-10-19T02:22:52.217Z,3.55
2022-10-19T02:25:20.274Z,3.63
2022-10-19T02:27:47.963Z,3.88
2022-10-19T02:30:19.379Z,4.03
2022-10-19T02:32:46.865Z,3.97
2022-10-19T02:35:15.063Z,3.60
2022-10-19T02:37:43.209Z,3.70
2022-10-19T02:40:11.719Z,3.75
2022-10-19T02:45:23.746Z,3.90
2022-10-19T02:47:59.961Z,4.07
2022-10-19T02:50:27.942Z,4.07
2022-10-19T02:52:55.453Z,4.32
2022-10-19T02:55:22.903Z,4.85
2022-10-19T02:57:50.367Z,5.00
2022-10-19T03:00:18.107Z,4.88
2022-10-19T03:02:45.548Z,4.78
2022-10-19T03:05:12.986Z,4.70
2022-10-19T03:07:41.434Z,5.20
2022-10-19T03:12:36.790Z,4.57
2022-10-19T03:15:05.196Z,4.82
2022-10-19T03:17:32.981Z,4.65
2022-10-19T03:20:00.701Z,4.53
2022-10-19T03:22:28.118Z,4.88
2022-10-19T03:24:55.537Z,4.95
2022-10-19T03:27:22.963Z,5.25
2022-10-19T03:29:50.436Z,5.15
2022-10-19T03:32:17.851Z,6.28
2022-10-19T03:34:45.411Z,6.22
2022-10-19T03:37:15.103Z,6.47
2022-10-19T03:39:42.543Z,5.60
2022-10-19T03:42:09.977Z,6.50
2022-10-19T03:44:37.465Z,5.65
2022-10-19T03:47:04.978Z,6.68
2022-10-19T03:49:34.624Z,6.10
2022-10-19T03:52:04.485Z,6.55
2022-10-19T03:54:31.983Z,6.88
2022-10-19T03:56:59.419Z,6.05
2022-10-19T03:59:26.926Z,7.20
2022-10-19T04:01:54.355Z,6.97
2022-10-19T04:04:21.837Z,7.18
2022-10-19T04:06:50.888Z,7.78
2022-10-19T04:09:21.948Z,7.05
2022-10-19T04:11:50.295Z,6.53
2022-10-19T04:14:31.863Z,7.18
2022-10-19T04:17:02.332Z,6.30
2022-10-19T04:19:29.925Z,6.18
2022-10-19T04:21:57.814Z,5.90
2022-10-19T04:24:25.334Z,6.72
2022-10-19T04:26:56.093Z,6.23
2022-10-19T04:29:29.516Z,6.88
2022-10-19T04:31:58.793Z,7.65
2022-10-19T04:34:26.226Z,7.75
2022-10-19T04:36:53.968Z,7.38
2022-10-19T04:39:21.440Z,7.65
2022-10-19T04:41:48.864Z,7.60
2022-10-19T04:44:16.409Z,7.07
2022-10-19T04:46:43.841Z,7.70
2022-10-19T04:49:11.619Z,8.32
2022-10-19T04:51:40.632Z,8.77
2022-10-19T04:54:08.141Z,8.88
2022-10-19T04:56:35.655Z,9.48
2022-10-19T04:59:03.267Z,8.33
2022-10-19T05:01:31.656Z,8.27
2022-10-19T05:04:01.673Z,9.60
2022-10-19T05:06:31.697Z,8.65
2022-10-19T05:09:00.054Z,8.77
2022-10-19T05:11:28.307Z,7.75
2022-10-19T05:13:58.491Z,9.25
2022-10-19T05:16:26.216Z,8.95
2022-10-19T05:18:56.758Z,9.95
2022-10-19T05:21:27.106Z,8.27
2022-10-19T05:23:57.255Z,9.93
2022-10-19T05:26:27.332Z,9.25
2022-10-19T05:29:01.660Z,7.97
2022-10-19T05:31:32.796Z,9.23
2022-10-19T05:34:00.875Z,9.65
2022-10-19T05:36:34.503Z,9.52
2022-10-19T05:39:12.072Z,8.75
2022-10-19T05:41:39.616Z,9.70
2022-10-19T05:44:07.196Z,9.17
2022-10-19T05:46:34.959Z,9.82
2022-10-19T05:49:02.555Z,8.52
2022-10-19T05:51:30.017Z,8.80
2022-10-19T05:53:57.760Z,8.27
2022-10-19T05:56:29.703Z,8.43
2022-10-19T05:58:59.766Z,7.97
2022-10-19T06:01:29.425Z,8.73
2022-10-19T06:03:59.467Z,8.07
2022-10-19T06:06:28.490Z,8.23
2022-10-19T06:08:58.999Z,8.60
2022-10-19T06:11:30.711Z,8.27
2022-10-19T06:13:59.884Z,8.63
2022-10-19T06:16:29.527Z,7.88
2022-10-19T06:18:58.184Z,8.30
2022-10-19T06:21:29.964Z,7.85
2022-10-19T06:24:01.044Z,8.02
2022-10-19T06:26:30.297Z,9.07
2022-10-19T06:29:00.685Z,8.38
2022-10-19T06:31:34.649Z,8.60
2022-10-19T06:34:02.400Z,8.50
2022-10-19T06:36:32.111Z,7.63
2022-10-19T06:39:01.712Z,8.98
2022-10-19T06:41:31.356Z,8.82
2022-10-19T06:44:12.801Z,8.40
2022-10-19T06:46:40.247Z,8.43
2022-10-19T06:49:07.700Z,8.55
2022-10-19T06:54:02.526Z,8.50
2022-10-19T06:58:58.433Z,7.80
2022-10-19T07:01:26.115Z,7.32
2022-10-19T07:03:54.153Z,8.07
2022-10-19T07:06:22.271Z,7.70
2022-10-19T07:08:49.831Z,7.88
2022-10-19T07:11:20.383Z,6.80
2022-10-19T07:13:48.390Z,7.00
2022-10-19T07:16:20.899Z,6.72
2022-10-19T07:18:51.887Z,7.03
2022-10-19T07:21:22.241Z,7.22
2022-10-19T07:23:50.654Z,7.13
2022-10-19T07:26:30.547Z,7.22
2022-10-19T07:28:58.335Z,7.40
2022-10-19T07:31:28.954Z,7.13
2022-10-19T07:33:59.912Z,6.85
2022-10-19T07:36:30.698Z,6.60
2022-10-19T07:38:58.854Z,6.88
2022-10-19T07:41:27.462Z,6.47
2022-10-19T07:43:55.369Z,6.43
2022-10-19T07:46:29.298Z,6.45
2022-10-19T07:48:56.806Z,5.95
2022-10-19T07:51:25.057Z,6.05
2022-10-19T07:53:53.036Z,5.82
2022-10-19T07:56:24.182Z,5.85
2022-10-19T07:58:54.998Z,5.65
2022-10-19T08:01:26.300Z,5.30
2022-10-19T08:06:43.092Z,5.38
2022-10-19T08:09:15.586Z,5.93
2022-10-19T08:11:50.484Z,5.35
2022-10-19T08:14:17.925Z,5.50
2022-10-19T08:16:45.465Z,5.10
2022-10-19T08:19:16.089Z,5.93
2022-10-19T08:21:46.626Z,5.20
2022-10-19T08:24:16.948Z,5.10
2022-10-19T08:26:44.986Z,5.20
2022-10-19T08:29:20.879Z,4.80
2022-10-19T08:31:49.546Z,4.73
2022-10-19T08:34:17.586Z,4.75
2022-10-19T08:36:45.544Z,5.03
2022-10-19T08:39:13.783Z,5.50
2022-10-19T08:41:41.280Z,4.88
2022-10-19T08:44:48.609Z,4.95
2022-10-19T08:47:43.183Z,10.65
2022-10-19T08:50:25.472Z,4.85
2022-10-19T08:53:05.692Z,4.82
2022-10-19T08:56:05.503Z,5.10
2022-10-19T08:59:09.904Z,4.20
2022-10-19T09:01:57.032Z,4.82
2022-10-19T09:04:38.341Z,4.60
2022-10-19T09:07:29.327Z,4.80
2022-10-19T09:10:14.796Z,5.28
2022-10-19T09:12:53.896Z,4.75
2022-10-19T09:15:48.600Z,4.78
2022-10-19T09:18:32.527Z,5.00
2022-10-19T09:21:16.213Z,5.05
2022-10-19T09:24:26.899Z,4.95
2022-10-19T09:26:59.450Z,4.72
2022-10-19T09:29:43.193Z,4.60
2022-10-19T09:32:19.608Z,4.82
2022-10-19T09:34:54.500Z,4.28
2022-10-19T09:37:26.526Z,4.40
2022-10-19T09:39:56.156Z,4.45
2022-10-19T09:42:30.319Z,4.70
2022-10-19T09:45:02.467Z,4.32
2022-10-19T09:47:39.869Z,4.53
2022-10-19T09:50:22.090Z,4.30
2022-10-19T09:53:04.143Z,4.15
2022-10-19T09:55:37.953Z,4.13
2022-10-19T09:58:14.524Z,4.32
2022-10-19T10:00:50.725Z,4.03
2022-10-19T10:03:29.066Z,4.35
2022-10-19T10:06:03.331Z,4.40
2022-10-19T10:08:36.304Z,4.50
2022-10-19T10:11:12.881Z,4.13
2022-10-19T10:13:52.968Z,4.72
2022-10-19T10:16:30.307Z,4.50
2022-10-19T10:19:07.188Z,4.68
2022-10-19T10:21:48.143Z,4.47
2022-10-19T10:24:16.749Z,4.68
2022-10-19T10:26:51.788Z,4.07
2022-10-19T10:29:32.483Z,4.68
2022-10-19T10:32:18.891Z,4.85
2022-10-19T10:35:01.863Z,4.93
2022-10-19T10:37:45.762Z,4.68
2022-10-19T10:40:31.547Z,4.93
2022-10-19T10:43:22.660Z,4.90
2022-10-19T10:45:53.811Z,4.65
2022-10-19T10:48:31.898Z,4.75
2022-10-19T10:51:01.643Z,4.95
2022-10-19T10:53:40.567Z,4.85
2022-10-19T10:56:28.466Z,4.55
2022-10-19T10:59:30.527Z,4.60
2022-10-19T11:02:38.080Z,4.60
2022-10-19T11:05:28.659Z,4.38
2022-10-19T11:08:43.528Z,4.63
2022-10-19T11:11:30.515Z,4.50
2022-10-19T11:16:53.055Z,5.28
2022-10-19T11:19:32.223Z,4.78
2022-10-19T11:22:39.536Z,4.85
2022-10-19T11:25:38.331Z,4.75
2022-10-19T11:28:30.640Z,5.00
2022-10-19T11:31:33.326Z,5.13
2022-10-19T11:34:23.631Z,5.00
2022-10-19T11:37:20.839Z,5.15
2022-10-19T11:40:12.161Z,4.80
2022-10-19T11:43:12.983Z,5.25
2022-10-19T11:46:01.968Z,5.15
2022-10-19T11:48:50.646Z,5.40
2022-10-19T11:51:41.392Z,5.55
2022-10-19T11:54:42.699Z,5.30
2022-10-19T11:57:20.531Z,5.05
2022-10-19T12:00:14.291Z,5.70
2022-10-19T12:02:54.698Z,5.78
2022-10-19T12:06:14.433Z,6.25
2022-10-19T12:09:00.943Z,7.15
2022-10-19T12:11:51.691Z,6.75
2022-10-19T12:14:28.200Z,6.20
2022-10-19T12:17:06.499Z,6.28
2022-10-19T12:19:41.994Z,6.57
2022-10-19T12:22:19.648Z,6.35
2022-10-19T12:24:48.631Z,7.03
2022-10-19T12:27:24.504Z,7.13
2022-10-19T12:29:53.298Z,6.10
2022-10-19T12:32:24.987Z,6.57
2022-10-19T12:35:17.272Z,6.82
2022-10-19T12:38:03.534Z,6.95
2022-10-19T12:40:52.156Z,6.50
2022-10-19T12:43:55.733Z,7.75
2022-10-19T12:46:34.787Z,7.22
2022-10-19T12:49:26.844Z,7.38
2022-10-19T12:52:00.044Z,7.65
2022-10-19T12:54:32.255Z,8.48
2022-10-19T12:57:03.339Z,7.82
2022-10-19T12:59:34.994Z,8.07
2022-10-19T13:02:24.512Z,7.97
2022-10-19T13:04:54.303Z,7.75
2022-10-19T13:07:22.043Z,7.40
2022-10-19T13:09:49.818Z,7.90
2022-10-19T13:12:21.817Z,7.82
2022-10-19T13:15:04.715Z,7.93
2022-10-19T13:17:36.539Z,7.78
2022-10-19T13:20:18.761Z,7.80
2022-10-19T13:23:10.127Z,8.32
2022-10-19T13:25:42.539Z,8.15
2022-10-19T13:28:10.050Z,13.23
2022-10-19T13:30:43.404Z,9.63
2022-10-19T13:33:25.852Z,10.20
2022-10-19T13:35:59.092Z,8.23
2022-10-19T13:38:29.297Z,8.35
2022-10-19T13:41:27.227Z,8.90
2022-10-19T13:44:14.381Z,8.68
2022-10-19T13:47:08.540Z,9.55
2022-10-19T13:49:59.835Z,9.35
2022-10-19T13:52:54.952Z,10.75
2022-10-19T13:55:51.706Z,10.32
2022-10-19T13:58:37.699Z,8.97
2022-10-19T14:01:29.116Z,9.43
2022-10-19T14:04:26.479Z,8.65
2022-10-19T14:07:04.995Z,10.02
2022-10-19T14:10:07.945Z,9.38
2022-10-19T14:12:41.487Z,9.43
2022-10-19T14:15:31.702Z,9.30
2022-10-19T14:18:02.365Z,10.45
2022-10-19T14:20:38.403Z,10.35
2022-10-19T14:23:36.805Z,9.55
2022-10-19T14:26:15.273Z,9.73
2022-10-19T14:28:43.368Z,9.40
2022-10-19T14:33:51.456Z,9.68
2022-10-19T14:36:28.032Z,9.23
2022-10-19T14:38:57.623Z,9.18
2022-10-19T14:41:27.913Z,10.02
2022-10-19T14:43:58.031Z,10.10
2022-10-19T14:46:34.174Z,9.80
2022-10-19T14:49:05.718Z,9.98
2022-10-19T14:51:54.333Z,10.25
2022-10-19T14:54:30.736Z,10.50
2022-10-19T14:57:17.505Z,11.55
2022-10-19T14:59:52.930Z,11.27
2022-10-19T15:02:27.983Z,12.48
2022-10-19T15:05:00.675Z,9.77
2022-10-19T15:07:42.699Z,9.88
2022-10-19T15:10:31.241Z,9.82
2022-10-19T15:13:06.191Z,10.95
2022-10-19T15:15:35.767Z,10.63
2022-10-19T15:18:06.626Z,10.50
2022-10-19T15:20:49.110Z,10.35
2022-10-19T15:23:41.553Z,11.15
2022-10-19T15:26:29.221Z,10.40
2022-10-19T15:29:22.335Z,10.73
2022-10-19T15:31:50.548Z,13.88
2022-10-19T15:37:01.480Z,13.45
2022-10-19T15:39:42.075Z,14.85
2022-10-19T15:42:36.809Z,12.40
2022-10-19T15:45:37.944Z,11.63
2022-10-19T15:48:11.182Z,10.35
2022-10-19T15:50:48.459Z,11.95
2022-10-19T15:53:16.877Z,13.40
2022-10-19T15:58:13.926Z,13.45
2022-10-19T16:00:42.556Z,14.57
2022-10-19T16:03:10.027Z,16.52
2022-10-19T16:05:37.901Z,18.77
2022-10-19T16:08:08.963Z,19.95
2022-10-19T16:10:39.197Z,20.27
2022-10-19T16:13:06.670Z,19.65
2022-10-19T16:15:34.229Z,19.98
2022-10-19T16:18:01.851Z,17.77
2022-10-19T16:20:30.202Z,22.77
2022-10-19T16:22:58.583Z,19.73
2022-10-19T16:25:26.190Z,14.88
2022-10-19T16:27:53.796Z,15.63
2022-10-19T16:30:21.373Z,24.20
2022-10-19T16:32:49.712Z,15.07
2022-10-19T16:35:17.207Z,13.73
2022-10-19T16:37:45.404Z,15.07
2022-10-19T16:40:12.888Z,14.60
2022-10-19T16:42:40.449Z,11.02
2022-10-19T16:45:09.199Z,13.50
2022-10-19T16:47:36.689Z,18.45
2022-10-19T16:50:06.477Z,17.23
2022-10-19T16:52:34.515Z,13.68
2022-10-19T16:55:02.568Z,14.70
2022-10-19T16:57:30.103Z,12.70
2022-10-19T16:59:57.568Z,13.32
2022-10-19T17:02:25.141Z,12.17
2022-10-19T17:04:52.651Z,11.20
2022-10-19T17:07:20.115Z,11.13
2022-10-19T17:09:49.773Z,10.95
2022-10-19T17:12:19.839Z,9.55
2022-10-19T17:14:47.284Z,11.13
2022-10-19T17:17:17.111Z,11.35
2022-10-19T17:19:44.555Z,11.88
2022-10-19T17:22:12.042Z,11.77
2022-10-19T17:24:39.984Z,10.82
2022-10-19T17:27:07.769Z,11.27
2022-10-19T17:29:35.566Z,10.18
2022-10-19T17:32:03.086Z,10.80
2022-10-19T17:34:30.521Z,11.30
2022-10-19T17:36:58.343Z,9.93
2022-10-19T17:39:29.054Z,10.40
2022-10-19T17:42:01.877Z,9.73
2022-10-19T17:44:31.360Z,8.90
2022-10-19T17:47:00.814Z,9.60
2022-10-19T17:49:29.992Z,9.88
2022-10-19T17:51:58.232Z,11.85
2022-10-19T17:54:25.866Z,9.82
2022-10-19T17:56:53.379Z,10.48
2022-10-19T17:59:30.252Z,9.30
2022-10-19T18:02:04.127Z,8.10
2022-10-19T18:04:31.903Z,7.75
2022-10-19T18:06:59.387Z,7.90
2022-10-19T18:09:26.806Z,7.75
2022-10-19T18:11:54.322Z,7.27
2022-10-19T18:14:22.747Z,7.10
2022-10-19T18:16:51.969Z,7.53
2022-10-19T18:19:19.455Z,6.78
2022-10-19T18:21:49.069Z,8.13
2022-10-19T18:24:20.158Z,8.57
2022-10-19T18:26:50.843Z,8.32
2022-10-19T18:29:24.259Z,8.77
2022-10-19T18:31:52.885Z,7.72
2022-10-19T18:34:26.127Z,8.05
2022-10-19T18:36:54.686Z,8.48
2022-10-19T18:39:23.061Z,8.23
2022-10-19T18:41:54.568Z,8.45
2022-10-19T18:44:27.218Z,6.60
2022-10-19T18:46:57.449Z,7.20
2022-10-19T18:49:25.581Z,6.00
2022-10-19T18:51:55.426Z,6.20
2022-10-19T18:54:26.510Z,4.65
2022-10-19T18:56:55.340Z,4.60
2022-10-19T18:59:23.400Z,3.88
2022-10-19T19:01:51.128Z,4.00
2022-10-19T19:04:18.662Z,3.85
2022-10-19T19:06:46.197Z,3.33
2022-10-19T19:09:14.149Z,3.53
2022-10-19T19:11:42.083Z,3.45
2022-10-19T19:14:20.940Z,3.05
2022-10-19T19:16:48.692Z,3.28
2022-10-19T19:19:18.867Z,3.33
2022-10-19T19:21:47.353Z,3.08
2022-10-19T19:24:18.974Z,3.25
2022-10-19T19:26:53.236Z,3.08
2022-10-19T19:29:22.311Z,3.45
2022-10-19T19:31:50.805Z,2.90
2022-10-19T19:34:18.427Z,2.80
2022-10-19T19:36:49.214Z,2.97
2022-10-19T19:39:20.491Z,2.78
2022-10-19T19:41:49.293Z,2.88
2022-10-19T19:44:18.226Z,3.40
2022-10-19T19:46:45.984Z,3.35
2022-10-19T19:49:14.485Z,5.18
2022-10-19T19:51:42.697Z,6.55
2022-10-19T19:54:11.452Z,5.70
2022-10-19T19:56:40.095Z,6.13
2022-10-19T19:59:08.999Z,6.63
2022-10-19T20:01:38.214Z,6.78
2022-10-19T20:04:06.845Z,7.25
2022-10-19T20:06:36.907Z,7.15
2022-10-19T20:09:06.767Z,5.65
2022-10-19T20:11:36.214Z,5.25
2022-10-19T20:14:07.300Z,5.18
2022-10-19T20:16:34.848Z,4.65
2022-10-19T20:19:13.513Z,4.35
2022-10-19T20:21:41.981Z,4.95
2022-10-19T20:24:10.062Z,5.10
2022-10-19T20:26:37.866Z,4.95
2022-10-19T20:29:06.005Z,4.82
2022-10-19T20:31:39.431Z,4.53
2022-10-19T20:34:13.953Z,4.13
2022-10-19T20:36:42.218Z,4.65
2022-10-19T20:39:10.239Z,3.55
2022-10-19T20:41:37.779Z,3.58
2022-10-19T20:44:05.406Z,3.27
2022-10-19T20:46:32.887Z,3.03
2022-10-19T20:49:02.074Z,2.70
2022-10-19T20:51:36.841Z,3.08
2022-10-19T20:54:08.096Z,3.00
2022-10-19T20:56:38.616Z,2.95
2022-10-19T20:59:10.763Z,3.08
2022-10-19T21:01:40.320Z,2.60
2022-10-19T21:04:11.050Z,3.33
2022-10-19T21:06:45.829Z,2.90
2022-10-19T21:09:20.319Z,2.92
2022-10-19T21:11:50.497Z,3.15
2022-10-19T21:14:28.181Z,3.03
2022-10-19T21:17:00.362Z,2.95
2022-10-19T21:19:30.839Z,2.78
2022-10-19T21:22:02.237Z,3.70
2022-10-19T21:24:36.381Z,3.78
2022-10-19T21:27:08.967Z,3.58
2022-10-19T21:29:37.707Z,3.72
2022-10-19T21:32:05.523Z,3.60
2022-10-19T21:34:33.717Z,3.63
2022-10-19T21:37:01.169Z,3.45
2022-10-19T21:39:28.691Z,4.43
2022-10-19T21:41:56.279Z,4.75
2022-10-19T21:44:23.864Z,3.85
2022-10-19T21:46:51.375Z,3.28
2022-10-19T21:49:19.227Z,3.37
2022-10-19T21:51:53.855Z,3.25
2022-10-19T21:54:24.995Z,3.70
2022-10-19T21:56:53.392Z,3.60
2022-10-19T22:01:48.474Z,3.08
2022-10-19T22:04:18.623Z,3.08
2022-10-19T22:06:47.036Z,4.43
2022-10-19T22:11:45.347Z,4.38
2022-10-19T22:14:15.207Z,3.50
2022-10-19T22:16:42.801Z,3.63
2022-10-19T22:19:10.617Z,3.45
2022-10-19T22:24:11.471Z,3.58
2022-10-19T22:26:43.314Z,4.03
2022-10-19T22:29:11.195Z,3.88
2022-10-19T22:31:39.400Z,3.78
2022-10-19T22:34:13.315Z,4.18
2022-10-19T22:36:41.048Z,4.20
2022-10-19T22:39:09.227Z,3.83
2022-10-19T22:41:36.854Z,4.20
2022-10-19T22:44:04.567Z,3.43
2022-10-19T22:46:33.918Z,3.58
2022-10-19T22:49:01.771Z,3.50
2022-10-19T22:51:29.441Z,3.85
2022-10-19T22:53:56.987Z,4.05
2022-10-19T22:56:24.458Z,4.70
2022-10-19T22:58:51.972Z,4.05
2022-10-19T23:01:19.639Z,3.60
2022-10-19T23:03:47.262Z,4.18
2022-10-19T23:06:15.572Z,4.47
2022-10-19T23:11:12.570Z,4.30
2022-10-19T23:13:41.146Z,4.03
2022-10-19T23:16:09.467Z,4.13
2022-10-19T23:18:40.711Z,3.35
2022-10-19T23:21:13.923Z,3.88
2022-10-19T23:23:41.658Z,4.78
2022-10-19T23:26:17.298Z,4.10
2022-10-19T23:28:48.236Z,3.95
2022-10-19T23:31:24.628Z,4.28
2022-10-19T23:33:53.821Z,4.70
2022-10-19T23:36:27.725Z,4.47
2022-10-19T23:38:57.543Z,4.10
2022-10-19T23:41:25.571Z,4.20
2022-10-19T23:43:53.088Z,3.97
2022-10-19T23:46:21.016Z,4.70
2022-10-19T23:48:48.449Z,4.50
2022-10-19T23:51:19.800Z,4.20
2022-10-19T23:53:49.724Z,4.25
2022-10-19T23:56:23.910Z,3.92
2022-10-19T23:58:52.523Z,4.22
